Time;durP1;ratioP1;P1;durP2;ratioP2;P2;SDS_P1;SDS_P2;PMS_P1;PMS_P2;Temp;Humidity;BMP_temperature;BMP_pressure;BME280_temperature;BME280_humidity;BME280_pressure;Samples;Min_cycle;Max_cycle;Signal;HPM_P1;HPM_P2
2021/10/06 00:00:12;;;;;;;9.33;2.37;;;10.00;83.90;;;;;;1905159;75;21019;-48
2021/10/06 00:02:41;;;;;;;11.60;4.03;;;10.00;83.30;;;;;;1905189;75;21016;-50
2021/10/06 00:05:11;;;;;;;13.53;3.10;;;10.00;84.00;;;;;;1905270;75;21097;-46
2021/10/06 00:07:41;;;;;;;21.12;3.62;;;10.00;84.00;;;;;;1905153;75;21022;-48
2021/10/06 00:10:10;;;;;;;15.50;3.92;;;10.00;84.20;;;;;;1905209;75;21036;-48
2021/10/06 00:12:40;;;;;;;23.47;4.08;;;9.90;83.70;;;;;;1905227;74;21043;-48
2021/10/06 00:15:12;;;;;;;11.30;3.65;;;9.90;83.90;;;;;;1905159;74;21079;-47
2021/10/06 00:17:42;;;;;;;10.78;2.70;;;9.90;84.00;;;;;;1905358;74;21099;-47
2021/10/06 00:20:14;;;;;;;12.80;3.45;;;9.90;84.20;;;;;;1905297;75;21035;-46
2021/10/06 00:22:43;;;;;;;13.48;3.02;;;9.90;84.10;;;;;;1905384;74;21019;-48
2021/10/06 00:25:13;;;;;;;10.50;3.90;;;9.90;84.00;;;;;;1905202;75;21011;-45
2021/10/06 00:27:42;;;;;;;17.40;2.90;;;9.80;84.10;;;;;;1905240;75;20996;-47
2021/10/06 00:30:12;;;;;;;12.73;3.40;;;9.80;84.10;;;;;;1905274;75;21023;-46
2021/10/06 00:32:42;;;;;;;17.52;3.35;;;9.80;84.10;;;;;;1905190;74;21035;-49
2021/10/06 00:35:12;;;;;;;16.02;4.15;;;9.80;84.20;;;;;;1905187;75;21018;-45
2021/10/06 00:37:41;;;;;;;11.35;2.67;;;9.80;84.10;;;;;;1905333;75;21019;-45
2021/10/06 00:40:11;;;;;;;10.55;2.75;;;9.80;84.20;;;;;;1905114;75;21055;-48
2021/10/06 00:42:41;;;;;;;16.75;3.50;;;9.80;84.30;;;;;;1905205;75;21155;-48
2021/10/06 00:45:11;;;;;;;22.22;4.25;;;9.70;84.40;;;;;;1905198;75;21155;-49
2021/10/06 00:47:40;;;;;;;16.73;4.55;;;9.70;84.20;;;;;;1905268;75;21109;-46
2021/10/06 00:50:10;;;;;;;14.28;4.30;;;9.70;84.50;;;;;;1905243;74;21094;-49
2021/10/06 00:52:40;;;;;;;22.93;5.03;;;9.70;84.50;;;;;;1905180;75;21015;-45
2021/10/06 00:55:09;;;;;;;6.22;2.83;;;9.70;84.50;;;;;;1905245;75;21019;-47
2021/10/06 00:57:39;;;;;;;15.25;3.33;;;9.70;84.50;;;;;;1905190;75;21086;-49
2021/10/06 01:00:09;;;;;;;28.35;3.75;;;9.70;84.50;;;;;;1905104;75;21075;-46
2021/10/06 01:02:38;;;;;;;10.30;3.80;;;9.70;84.70;;;;;;1905227;75;21078;-47
2021/10/06 01:05:09;;;;;;;12.68;3.40;;;9.70;85.40;;;;;;1905201;75;21293;-47
2021/10/06 01:07:40;;;;;;;17.73;4.85;;;9.70;84.90;;;;;;1905301;74;21042;-47
2021/10/06 01:10:10;;;;;;;6.37;2.45;;;9.70;84.90;;;;;;1905296;74;21181;-49
2021/10/06 01:12:41;;;;;;;13.62;3.35;;;9.70;84.70;;;;;;1905464;75;21027;-45
2021/10/06 01:15:13;;;;;;;13.75;4.08;;;9.70;84.60;;;;;;1924417;74;21018;-46
2021/10/06 01:17:42;;;;;;;8.78;2.70;;;9.70;84.80;;;;;;1924718;74;21085;-49
2021/10/06 01:20:12;;;;;;;16.00;3.70;;;9.70;84.60;;;;;;1924731;74;21046;-45
2021/10/06 01:22:42;;;;;;;15.18;3.60;;;9.70;84.30;;;;;;1924688;74;20999;-48
2021/10/06 01:25:13;;;;;;;15.60;4.22;;;9.70;84.70;;;;;;1924765;74;20999;-46
2021/10/06 01:27:44;;;;;;;15.78;3.27;;;9.70;84.60;;;;;;1924674;74;21481;-46
2021/10/06 01:30:15;;;;;;;10.38;2.58;;;9.70;84.50;;;;;;1924666;74;21066;-48
2021/10/06 01:32:46;;;;;;;7.97;3.25;;;9.70;84.70;;;;;;1924702;74;21085;-45
2021/10/06 01:35:17;;;;;;;16.15;4.15;;;9.70;84.90;;;;;;1924802;74;21088;-45
2021/10/06 01:37:46;;;;;;;11.35;2.70;;;9.70;84.80;;;;;;1924690;74;21037;-47
2021/10/06 01:40:19;;;;;;;10.13;3.55;;;9.70;84.50;;;;;;1924744;74;21073;-46
2021/10/06 01:42:49;;;;;;;15.90;2.77;;;9.70;84.80;;;;;;1924751;74;21038;-48
2021/10/06 01:45:26;;;;;;;10.13;3.90;;;9.60;84.70;;;;;;1924733;74;21062;-46
2021/10/06 01:47:57;;;;;;;7.60;2.62;;;9.60;84.90;;;;;;1924883;74;21015;-47
2021/10/06 01:50:28;;;;;;;9.60;3.40;;;9.60;84.90;;;;;;1923978;74;21019;-47
2021/10/06 01:52:57;;;;;;;14.68;4.45;;;9.60;85.00;;;;;;1924750;74;21034;-48
2021/10/06 01:55:29;;;;;;;8.85;3.17;;;9.60;84.90;;;;;;1924730;74;20991;-49
2021/10/06 01:58:00;;;;;;;6.62;2.35;;;9.60;84.80;;;;;;1924592;74;21093;-46
2021/10/06 02:00:30;;;;;;;21.02;3.75;;;9.60;84.70;;;;;;1924658;74;21022;-47
2021/10/06 02:03:00;;;;;;;16.95;4.05;;;9.60;84.90;;;;;;1924674;74;21030;-46
2021/10/06 02:05:33;;;;;;;22.60;4.15;;;9.60;85.10;;;;;;1924627;74;20987;-48
2021/10/06 02:08:02;;;;;;;13.22;3.45;;;9.60;85.10;;;;;;1924568;74;21556;-45
2021/10/06 02:10:31;;;;;;;7.87;3.22;;;9.60;85.00;;;;;;1924155;74;21092;-45
2021/10/06 02:13:01;;;;;;;11.20;3.72;;;9.60;84.90;;;;;;1924699;74;21011;-47
2021/10/06 02:15:31;;;;;;;10.10;3.50;;;9.60;84.90;;;;;;1924596;74;21035;-45
2021/10/06 02:18:00;;;;;;;6.83;3.12;;;9.60;84.80;;;;;;1924662;74;21022;-46
2021/10/06 02:20:29;;;;;;;13.43;3.22;;;9.60;84.80;;;;;;1924722;74;21073;-46
2021/10/06 02:22:59;;;;;;;16.60;2.90;;;9.60;84.70;;;;;;1924766;74;21038;-48
2021/10/06 02:25:28;;;;;;;4.85;2.60;;;9.50;84.60;;;;;;1924781;74;21078;-47
2021/10/06 02:27:57;;;;;;;6.40;2.87;;;9.60;84.70;;;;;;1924724;74;21023;-46
2021/10/06 02:30:27;;;;;;;14.18;4.42;;;9.60;84.80;;;;;;1924576;74;21011;-45
2021/10/06 02:32:56;;;;;;;13.22;4.20;;;9.60;84.70;;;;;;1924654;74;20991;-45
2021/10/06 02:35:26;;;;;;;12.65;4.30;;;9.50;84.80;;;;;;1924611;74;21101;-45
2021/10/06 02:37:55;;;;;;;9.10;3.35;;;9.60;84.90;;;;;;1924781;74;21031;-46
2021/10/06 02:40:25;;;;;;;7.40;3.05;;;9.50;84.70;;;;;;1924556;74;21072;-45
2021/10/06 02:42:54;;;;;;;13.00;2.62;;;9.60;84.50;;;;;;1924619;74;21088;-48
2021/10/06 02:45:24;;;;;;;11.28;3.90;;;9.50;84.50;;;;;;1924671;74;21010;-47
2021/10/06 02:47:53;;;;;;;9.58;3.52;;;9.50;84.50;;;;;;1924691;74;21127;-46
2021/10/06 02:50:24;;;;;;;13.13;3.83;;;9.50;84.80;;;;;;1924567;74;21015;-47
2021/10/06 02:52:53;;;;;;;10.05;3.58;;;9.50;84.70;;;;;;1924649;74;20995;-49
2021/10/06 02:55:23;;;;;;;10.08;1.95;;;9.50;84.50;;;;;;1924595;74;21022;-45
2021/10/06 02:57:52;;;;;;;10.40;3.02;;;9.40;84.40;;;;;;1924645;74;21110;-46
2021/10/06 03:00:22;;;;;;;11.48;2.95;;;9.50;84.60;;;;;;1924580;74;21018;-45
2021/10/06 03:02:51;;;;;;;8.33;2.15;;;9.40;84.50;;;;;;1924732;74;21050;-45
2021/10/06 03:05:21;;;;;;;8.80;3.67;;;9.40;84.50;;;;;;1924612;74;21101;-45
2021/10/06 03:07:50;;;;;;;8.98;3.05;;;9.40;84.60;;;;;;1924816;74;21027;-47
2021/10/06 03:10:20;;;;;;;7.22;3.25;;;9.40;84.60;;;;;;1924679;74;21129;-45
2021/10/06 03:12:49;;;;;;;13.35;3.40;;;9.40;84.60;;;;;;1924675;74;21139;-47
2021/10/06 03:15:18;;;;;;;13.53;4.10;;;9.40;84.80;;;;;;1924660;74;21543;-47
2021/10/06 03:17:48;;;;;;;18.00;4.15;;;9.40;84.70;;;;;;1924595;74;20998;-44
2021/10/06 03:20:17;;;;;;;11.12;4.05;;;9.40;84.70;;;;;;1924566;74;21081;-47
2021/10/06 03:22:47;;;;;;;10.25;3.30;;;9.40;84.80;;;;;;1924639;74;21019;-45
2021/10/06 03:25:17;;;;;;;9.23;3.65;;;9.40;84.70;;;;;;1924728;74;21050;-45
2021/10/06 03:27:47;;;;;;;16.62;3.95;;;9.40;84.50;;;;;;1924551;74;21012;-46
2021/10/06 03:30:16;;;;;;;6.20;2.37;;;9.40;84.50;;;;;;1924568;74;21488;-47
2021/10/06 03:32:45;;;;;;;10.30;2.67;;;9.40;84.40;;;;;;1924640;74;21088;-48
2021/10/06 03:35:18;;;;;;;7.20;2.50;;;9.40;84.40;;;;;;1924651;74;21020;-45
2021/10/06 03:37:46;;;;;;;9.78;3.22;;;9.30;84.50;;;;;;1924552;74;21026;-48
2021/10/06 03:40:16;;;;;;;18.30;3.90;;;9.30;84.30;;;;;;1924165;74;21092;-45
2021/10/06 03:42:46;;;;;;;12.23;3.45;;;9.30;84.60;;;;;;1924616;74;20999;-47
2021/10/06 03:45:16;;;;;;;7.17;2.35;;;9.30;84.60;;;;;;1924612;74;21015;-46
2021/10/06 03:47:45;;;;;;;9.15;2.98;;;9.30;84.50;;;;;;1924635;74;21097;-47
2021/10/06 03:50:17;;;;;;;13.95;3.62;;;9.30;84.50;;;;;;1924601;74;21018;-44
2021/10/06 03:52:47;;;;;;;14.87;3.60;;;9.30;84.70;;;;;;1924787;74;21011;-44
2021/10/06 03:55:16;;;;;;;8.80;3.00;;;9.30;84.70;;;;;;1924565;74;21014;-47
2021/10/06 03:57:46;;;;;;;9.30;3.30;;;9.30;84.60;;;;;;1924576;74;21022;-45
2021/10/06 04:00:15;;;;;;;6.55;3.50;;;9.20;84.40;;;;;;1924532;74;21072;-49
2021/10/06 04:02:45;;;;;;;11.15;3.33;;;9.20;84.60;;;;;;1924557;74;21054;-45
2021/10/06 04:05:14;;;;;;;8.58;3.67;;;9.20;84.70;;;;;;1924578;74;21077;-45
2021/10/06 04:07:44;;;;;;;11.15;3.90;;;9.10;84.50;;;;;;1924684;74;21018;-47
2021/10/06 04:10:13;;;;;;;10.68;3.70;;;9.10;84.50;;;;;;1924575;74;21019;-47
2021/10/06 04:12:43;;;;;;;11.95;3.27;;;9.00;84.60;;;;;;1924562;74;20987;-46
2021/10/06 04:15:13;;;;;;;9.93;3.12;;;9.00;84.50;;;;;;1919017;74;21119;-48
2021/10/06 04:17:42;;;;;;;12.47;3.47;;;9.00;85.00;;;;;;1905259;75;21136;-47
2021/10/06 04:20:12;;;;;;;8.03;3.10;;;9.00;84.90;;;;;;1905126;74;21019;-48
2021/10/06 04:22:41;;;;;;;13.03;3.87;;;9.00;84.70;;;;;;1905059;75;21023;-45
2021/10/06 04:25:11;;;;;;;6.95;2.33;;;8.90;84.90;;;;;;1905090;75;21093;-47
2021/10/06 04:27:41;;;;;;;17.00;3.15;;;8.90;84.80;;;;;;1905260;75;21019;-44
2021/10/06 04:30:11;;;;;;;8.18;3.10;;;8.90;84.60;;;;;;1905160;75;21077;-47
2021/10/06 04:32:40;;;;;;;13.00;3.22;;;8.90;85.00;;;;;;1905214;75;21015;-45
2021/10/06 04:35:11;;;;;;;5.22;2.95;;;8.90;84.70;;;;;;1905164;74;21019;-49
2021/10/06 04:37:40;;;;;;;14.83;2.90;;;8.90;84.60;;;;;;1905259;74;21081;-46
2021/10/06 04:40:11;;;;;;;7.08;3.15;;;8.90;84.90;;;;;;1905209;75;21015;-45
2021/10/06 04:42:40;;;;;;;13.80;2.50;;;8.90;84.60;;;;;;1905265;75;20999;-45
2021/10/06 04:45:09;;;;;;;5.53;2.60;;;8.80;84.40;;;;;;1905317;75;21063;-46
2021/10/06 04:47:39;;;;;;;9.45;3.33;;;8.80;84.60;;;;;;1905119;75;21067;-47
2021/10/06 04:50:10;;;;;;;15.85;4.15;;;8.80;84.80;;;;;;1905132;75;21400;-46
2021/10/06 04:52:40;;;;;;;11.35;2.85;;;8.80;84.80;;;;;;1905178;74;21079;-48
2021/10/06 04:55:09;;;;;;;17.37;4.42;;;8.80;84.60;;;;;;1905234;75;21066;-46
2021/10/06 04:57:39;;;;;;;7.42;2.98;;;8.80;84.80;;;;;;1905304;74;21027;-49
2021/10/06 05:00:09;;;;;;;10.25;2.20;;;8.80;84.90;;;;;;1905136;75;21086;-48
2021/10/06 05:02:38;;;;;;;23.85;3.25;;;8.80;84.90;;;;;;1905106;75;21051;-46
2021/10/06 05:05:08;;;;;;;11.53;3.70;;;8.80;84.80;;;;;;1905122;75;21019;-48
2021/10/06 05:07:38;;;;;;;4.62;2.33;;;8.80;84.70;;;;;;1905260;75;21039;-49
2021/10/06 05:10:07;;;;;;;11.48;3.45;;;8.80;85.00;;;;;;1905151;74;21027;-48
2021/10/06 05:12:37;;;;;;;6.33;2.67;;;8.80;85.10;;;;;;1905159;75;21023;-47
2021/10/06 05:15:07;;;;;;;12.95;3.72;;;8.80;84.70;;;;;;1905201;75;20999;-48
2021/10/06 05:17:36;;;;;;;9.95;2.40;;;8.80;84.90;;;;;;1905173;75;21031;-48
2021/10/06 05:20:06;;;;;;;6.15;2.50;;;8.80;84.90;;;;;;1905142;75;21027;-48
2021/10/06 05:22:36;;;;;;;20.00;4.00;;;8.80;85.00;;;;;;1905150;75;21024;-50
2021/10/06 05:25:06;;;;;;;11.35;2.35;;;8.80;85.10;;;;;;1905165;75;21019;-45
2021/10/06 05:27:35;;;;;;;9.83;3.55;;;8.80;85.30;;;;;;1905042;75;21024;-46
2021/10/06 05:30:07;;;;;;;3.17;1.75;;;8.80;84.80;;;;;;1905118;75;21019;-47
2021/10/06 05:32:36;;;;;;;15.68;4.17;;;8.80;84.80;;;;;;1905054;74;21085;-46
2021/10/06 05:35:06;;;;;;;9.88;3.65;;;8.80;85.10;;;;;;1905182;74;21019;-46
2021/10/06 05:37:36;;;;;;;10.45;3.65;;;8.80;85.00;;;;;;1905315;75;21023;-47
2021/10/06 05:40:06;;;;;;;14.50;4.33;;;8.80;85.20;;;;;;1905052;75;21020;-46
2021/10/06 05:42:36;;;;;;;9.60;3.25;;;8.80;85.20;;;;;;1905091;75;21093;-47
2021/10/06 05:45:06;;;;;;;19.92;4.50;;;8.80;85.20;;;;;;1905111;75;21019;-47
2021/10/06 05:47:35;;;;;;;17.02;3.98;;;8.80;85.10;;;;;;1905087;74;21027;-49
2021/10/06 05:50:06;;;;;;;21.35;4.62;;;8.90;85.10;;;;;;1905263;74;21015;-47
2021/10/06 05:52:36;;;;;;;7.00;2.52;;;8.90;85.20;;;;;;1905351;74;21023;-47
2021/10/06 05:55:06;;;;;;;25.00;5.60;;;8.90;84.90;;;;;;1905260;75;21019;-49
2021/10/06 05:57:36;;;;;;;38.83;4.55;;;8.90;85.00;;;;;;1905374;75;21093;-46
2021/10/06 06:00:06;;;;;;;17.57;3.75;;;8.90;85.20;;;;;;1905264;75;20995;-48
2021/10/06 06:02:39;;;;;;;7.42;2.52;;;8.90;85.10;;;;;;1904880;74;20995;-47
2021/10/06 06:05:09;;;;;;;11.22;3.72;;;8.90;85.00;;;;;;1905306;74;21043;-49
2021/10/06 06:07:38;;;;;;;14.15;5.08;;;8.90;85.00;;;;;;1905160;75;21024;-46
2021/10/06 06:10:08;;;;;;;12.55;2.98;;;8.90;85.20;;;;;;1905267;75;20999;-48
2021/10/06 06:12:38;;;;;;;22.00;6.15;;;9.00;84.80;;;;;;1905338;75;21477;-49
2021/10/06 06:15:08;;;;;;;10.43;3.33;;;9.00;85.00;;;;;;1905229;75;21027;-47
2021/10/06 06:17:38;;;;;;;24.20;4.55;;;9.00;84.80;;;;;;1905439;74;21117;-49
2021/10/06 06:20:12;;;;;;;15.95;3.35;;;9.00;85.00;;;;;;1905347;75;21019;-49
2021/10/06 06:22:43;;;;;;;20.97;6.42;;;9.10;84.80;;;;;;1905539;75;20992;-48
2021/10/06 06:25:12;;;;;;;17.52;4.17;;;9.00;84.40;;;;;;1905354;75;21089;-46
2021/10/06 06:27:42;;;;;;;12.20;3.80;;;9.00;84.50;;;;;;1905317;74;21074;-49
2021/10/06 06:30:11;;;;;;;17.57;4.12;;;9.00;84.30;;;;;;1905307;74;21114;-48
2021/10/06 06:32:41;;;;;;;29.50;4.95;;;9.00;84.60;;;;;;1905252;75;21063;-49
2021/10/06 06:35:11;;;;;;;25.95;5.25;;;9.00;84.90;;;;;;1905202;75;21062;-48
2021/10/06 06:37:40;;;;;;;13.55;4.30;;;9.10;84.90;;;;;;1905283;74;21102;-45
2021/10/06 06:40:11;;;;;;;16.52;6.58;;;9.10;84.60;;;;;;1905287;75;21034;-47
2021/10/06 06:42:40;;;;;;;29.52;8.38;;;9.10;84.60;;;;;;1905140;75;20996;-48
2021/10/06 06:45:10;;;;;;;26.30;5.28;;;9.10;84.60;;;;;;1905254;75;21085;-48
2021/10/06 06:47:41;;;;;;;16.85;4.05;;;9.10;84.70;;;;;;1905293;75;21012;-48
2021/10/06 06:50:12;;;;;;;23.70;3.80;;;9.20;84.50;;;;;;1905284;74;21454;-46
2021/10/06 06:52:42;;;;;;;17.70;4.87;;;9.20;84.10;;;;;;1905270;75;21078;-46
2021/10/06 06:55:11;;;;;;;24.98;5.65;;;9.10;84.20;;;;;;1905144;75;21133;-47
2021/10/06 06:57:41;;;;;;;13.45;4.30;;;9.10;84.30;;;;;;1905306;74;21120;-49
2021/10/06 07:00:11;;;;;;;12.75;5.78;;;9.10;84.40;;;;;;1905209;75;21023;-49
2021/10/06 07:02:41;;;;;;;15.83;4.58;;;9.10;84.30;;;;;;1905196;75;21110;-48
2021/10/06 07:05:10;;;;;;;12.15;3.17;;;9.20;84.30;;;;;;1905154;74;21008;-49
2021/10/06 07:07:39;;;;;;;24.12;5.30;;;9.10;83.30;;;;;;1905171;75;21024;-49
2021/10/06 07:10:09;;;;;;;13.88;4.08;;;9.10;83.60;;;;;;1890923;75;21090;-49
2021/10/06 07:12:39;;;;;;;25.65;5.40;;;9.20;83.30;;;;;;1888594;75;20984;-49
2021/10/06 07:15:08;;;;;;;22.13;5.72;;;9.20;83.60;;;;;;1890768;75;21077;-49
2021/10/06 07:17:38;;;;;;;15.83;4.95;;;9.20;83.50;;;;;;1880065;75;21055;-46
2021/10/06 07:20:09;;;;;;;31.33;8.20;;;9.20;83.60;;;;;;1882230;75;21020;-46
2021/10/06 07:22:38;;;;;;;23.90;6.20;;;9.30;83.60;;;;;;1882228;75;21040;-49
2021/10/06 07:25:08;;;;;;;18.12;5.72;;;9.20;83.10;;;;;;1882281;75;21028;-49
2021/10/06 07:27:37;;;;;;;24.05;6.33;;;9.30;82.70;;;;;;1882127;75;21036;-50
2021/10/06 07:30:08;;;;;;;43.75;15.90;;;9.30;83.20;;;;;;1881996;75;21036;-52
2021/10/06 07:32:37;;;;;;;16.95;5.58;;;9.30;83.30;;;;;;1881978;75;21036;-51
2021/10/06 07:35:08;;;;;;;26.50;6.22;;;9.40;83.00;;;;;;1882167;76;21044;-50
2021/10/06 07:37:37;;;;;;;18.57;4.42;;;9.40;82.70;;;;;;1882131;76;21066;-47
2021/10/06 07:40:07;;;;;;;10.35;3.08;;;9.40;82.40;;;;;;1882306;76;21016;-50
2021/10/06 07:42:38;;;;;;;17.10;3.58;;;9.50;82.30;;;;;;1882173;75;21050;-49
2021/10/06 07:45:08;;;;;;;10.23;2.72;;;9.50;82.00;;;;;;1882286;75;21052;-51
2021/10/06 07:47:38;;;;;;;14.45;3.95;;;9.50;82.30;;;;;;1882120;75;21114;-51
2021/10/06 07:50:07;;;;;;;9.55;2.67;;;9.50;81.80;;;;;;1882167;76;21063;-49
2021/10/06 07:52:37;;;;;;;9.08;3.00;;;9.60;81.70;;;;;;1882237;75;21102;-50
2021/10/06 07:55:07;;;;;;;26.12;3.55;;;9.50;81.90;;;;;;1882232;75;21036;-50
2021/10/06 07:57:36;;;;;;;24.32;4.28;;;9.60;81.70;;;;;;1905065;75;21005;-49
2021/10/06 08:00:07;;;;;;;9.00;3.08;;;9.60;82.00;;;;;;1914610;75;21013;-48
2021/10/06 08:02:38;;;;;;;22.55;4.15;;;9.60;81.70;;;;;;1914391;75;21033;-49
2021/10/06 08:05:08;;;;;;;10.60;3.15;;;9.60;82.20;;;;;;1914676;75;21013;-49
2021/10/06 08:07:39;;;;;;;12.73;3.33;;;9.60;81.70;;;;;;1912826;75;21091;-47
2021/10/06 08:10:09;;;;;;;8.05;2.12;;;9.60;81.60;;;;;;1913776;74;21115;-47
2021/10/06 08:12:39;;;;;;;14.95;3.83;;;9.60;81.60;;;;;;1914027;75;21069;-47
2021/10/06 08:15:10;;;;;;;18.37;3.22;;;9.60;81.80;;;;;;1913870;75;20990;-51
2021/10/06 08:17:39;;;;;;;8.70;2.27;;;9.60;81.50;;;;;;1916754;74;21158;-49
2021/10/06 08:20:09;;;;;;;17.62;4.45;;;9.60;81.10;;;;;;1923949;74;21060;-49
2021/10/06 08:22:39;;;;;;;13.48;2.70;;;9.60;81.80;;;;;;1923677;74;21108;-49
2021/10/06 08:25:09;;;;;;;5.92;3.25;;;9.60;81.10;;;;;;1924054;74;21037;-50
2021/10/06 08:27:38;;;;;;;15.20;3.65;;;9.60;81.00;;;;;;1923890;74;21138;-50
2021/10/06 08:30:08;;;;;;;27.10;5.28;;;9.70;81.50;;;;;;1923808;74;21123;-51
2021/10/06 08:32:37;;;;;;;29.12;5.37;;;9.70;81.50;;;;;;1924124;74;21081;-48
2021/10/06 08:35:07;;;;;;;14.65;3.35;;;9.70;81.60;;;;;;1923990;74;21084;-48
2021/10/06 08:37:37;;;;;;;19.30;2.35;;;9.70;81.50;;;;;;1911466;74;21084;-49
2021/10/06 08:40:07;;;;;;;10.18;3.92;;;9.70;81.60;;;;;;1884251;76;21077;-50
2021/10/06 08:42:37;;;;;;;18.92;4.45;;;9.70;81.30;;;;;;1884222;76;21139;-47
2021/10/06 08:45:07;;;;;;;9.25;2.95;;;9.80;81.50;;;;;;1884167;76;21071;-46
2021/10/06 08:47:40;;;;;;;31.50;5.12;;;9.80;81.00;;;;;;1884396;76;21097;-48
2021/10/06 08:50:12;;;;;;;18.25;2.90;;;9.80;81.30;;;;;;1884426;76;21132;-48
2021/10/06 08:52:42;;;;;;;11.10;2.85;;;9.80;81.30;;;;;;1884269;76;21465;-48
2021/10/06 08:55:11;;;;;;;6.20;2.60;;;9.80;81.00;;;;;;1884423;76;21485;-47
2021/10/06 08:57:40;;;;;;;10.88;3.90;;;9.80;81.00;;;;;;1884391;76;21007;-50
2021/10/06 09:00:11;;;;;;;26.57;3.83;;;9.80;80.60;;;;;;1884097;76;21097;-50
2021/10/06 09:02:42;;;;;;;11.18;3.10;;;9.80;81.10;;;;;;1884336;76;21085;-48
2021/10/06 09:05:13;;;;;;;18.10;5.87;;;9.80;80.90;;;;;;1884156;76;21038;-47
2021/10/06 09:08:00;;;;;;;12.53;3.17;;;9.90;81.10;;;;;;1884152;76;21035;-51
2021/10/06 09:10:31;;;;;;;13.18;3.72;;;9.90;81.20;;;;;;1884149;76;21018;-49
2021/10/06 09:13:06;;;;;;;11.43;2.37;;;9.90;81.00;;;;;;1884435;76;21093;-48
2021/10/06 09:15:48;;;;;;;22.05;3.98;;;9.90;80.60;;;;;;1884376;76;21025;-48
2021/10/06 09:18:26;;;;;;;13.08;3.47;;;10.00;81.00;;;;;;1883469;75;21151;-46
2021/10/06 09:21:01;;;;;;;23.50;5.65;;;10.00;80.60;;;;;;1890916;76;21026;-50
2021/10/06 09:23:30;;;;;;;15.55;4.85;;;10.00;81.10;;;;;;1891079;76;21131;-50
2021/10/06 09:26:02;;;;;;;14.10;3.67;;;10.00;81.30;;;;;;1891157;76;21077;-46
2021/10/06 09:28:39;;;;;;;12.60;3.85;;;10.10;81.30;;;;;;1891078;76;21167;-49
2021/10/06 09:31:18;;;;;;;12.85;3.22;;;10.10;81.30;;;;;;1890581;75;21093;-50
2021/10/06 09:33:52;;;;;;;14.58;4.50;;;10.10;81.10;;;;;;1891280;76;21093;-50
2021/10/06 09:36:31;;;;;;;13.78;3.37;;;10.10;81.30;;;;;;1890928;75;21105;-51
2021/10/06 09:39:03;;;;;;;13.90;4.22;;;10.10;80.60;;;;;;1889959;75;21066;-49
2021/10/06 09:41:33;;;;;;;;;;;10.10;81.20;;;;;;1903209;74;21580;-47
2021/10/06 09:44:05;;;;;;;18.05;3.45;;;10.10;80.80;;;;;;1907502;74;20152;-45
2021/10/06 09:46:49;;;;;;;14.47;2.62;;;10.10;80.70;;;;;;1908813;74;21046;-49
2021/10/06 09:49:27;;;;;;;15.30;3.77;;;10.10;80.00;;;;;;1914440;74;21530;-48
2021/10/06 09:52:19;;;;;;;17.30;2.95;;;10.10;80.50;;;;;;1911302;74;21140;-50
2021/10/06 09:54:51;;;;;;;16.15;3.25;;;10.10;80.80;;;;;;1907103;74;21204;-48
2021/10/06 09:57:32;;;;;;;9.85;2.55;;;10.10;80.00;;;;;;1905343;74;21086;-48
2021/10/06 10:00:20;;;;;;;6.50;3.52;;;10.10;80.20;;;;;;1906735;74;21053;-51
2021/10/06 10:02:50;;;;;;;4.33;2.42;;;10.10;80.50;;;;;;1904151;74;21197;-46
2021/10/06 10:05:19;;;;;;;3.33;1.67;;;10.10;80.70;;;;;;1890682;76;21058;-50
2021/10/06 10:07:53;;;;;;;8.75;2.85;;;10.20;80.60;;;;;;1890908;74;21160;-47
2021/10/06 10:10:19;;;;;;;10.10;3.83;;;10.20;80.30;;;;;;1903541;74;21651;-45
2021/10/06 10:12:49;;;;;;;14.40;5.75;;;10.20;80.70;;;;;;1909559;74;21015;-49
2021/10/06 10:15:20;;;;;;;19.60;4.95;;;10.20;80.50;;;;;;1907075;74;21141;-45
2021/10/06 10:17:56;;;;;;;9.28;4.05;;;10.20;80.70;;;;;;1905153;74;21023;-48
2021/10/06 10:20:26;;;;;;;10.75;3.33;;;10.20;80.50;;;;;;1895525;74;21125;-46
2021/10/06 10:22:57;;;;;;;15.88;2.75;;;10.20;80.00;;;;;;1896352;75;21018;-47
2021/10/06 10:25:28;;;;;;;12.53;2.60;;;10.20;79.60;;;;;;1894606;75;21053;-49
2021/10/06 10:28:06;;;;;;;8.83;3.80;;;10.20;79.80;;;;;;1898034;75;21539;-49
2021/10/06 10:30:38;;;;;;;16.73;4.25;;;10.20;80.40;;;;;;1910032;75;21080;-52
2021/10/06 10:33:08;;;;;;;12.10;3.55;;;10.20;80.60;;;;;;1891606;75;21020;-52
2021/10/06 10:35:46;;;;;;;7.30;3.50;;;10.20;80.50;;;;;;1881129;76;21061;-51
2021/10/06 10:38:17;;;;;;;12.23;4.67;;;10.20;80.10;;;;;;1880614;76;21428;-50
2021/10/06 10:40:48;;;;;;;13.50;3.72;;;10.20;80.30;;;;;;1881176;76;21030;-47
2021/10/06 10:43:20;;;;;;;12.00;3.47;;;10.20;80.50;;;;;;1880293;76;21546;-49
2021/10/06 10:46:07;;;;;;;5.92;2.75;;;10.20;80.10;;;;;;1880945;76;21068;-46
2021/10/06 10:49:01;;;;;;;9.13;3.00;;;10.20;80.50;;;;;;1881889;76;21109;-47
2021/10/06 10:51:47;;;;;;;10.13;3.77;;;10.20;80.30;;;;;;1882211;76;21021;-49
2021/10/06 10:54:41;;;;;;;11.70;3.95;;;10.20;80.10;;;;;;1882269;75;21513;-46
2021/10/06 10:57:25;;;;;;;19.70;3.60;;;10.20;80.20;;;;;;1881983;76;21099;-49
2021/10/06 10:59:56;;;;;;;16.27;3.40;;;10.20;80.10;;;;;;1882195;76;21061;-46
2021/10/06 11:02:31;;;;;;;12.85;3.80;;;10.20;80.30;;;;;;1882184;76;21084;-50
2021/10/06 11:05:02;;;;;;;6.65;3.83;;;10.20;80.00;;;;;;1881376;76;21029;-48
2021/10/06 11:07:32;;;;;;;8.70;3.02;;;10.20;80.40;;;;;;1882253;76;21060;-49
2021/10/06 11:10:06;;;;;;;9.98;3.17;;;10.20;80.70;;;;;;1882236;75;21025;-48
2021/10/06 11:12:36;;;;;;;19.77;3.33;;;10.20;80.40;;;;;;1882230;75;21553;-49
2021/10/06 11:15:07;;;;;;;9.78;3.00;;;10.20;80.30;;;;;;1882250;75;21142;-48
2021/10/06 11:17:38;;;;;;;7.50;3.35;;;10.20;80.20;;;;;;1878913;75;21538;-50
2021/10/06 11:20:08;;;;;;;5.80;2.80;;;10.20;80.50;;;;;;1871701;75;21466;-50
2021/10/06 11:22:41;;;;;;;12.60;3.10;;;10.20;80.60;;;;;;1872730;76;21015;-50
2021/10/06 11:25:11;;;;;;;7.87;3.65;;;10.20;80.10;;;;;;1872729;75;21018;-46
2021/10/06 11:27:52;;;;;;;12.15;4.22;;;10.20;80.30;;;;;;1872693;77;21101;-51
2021/10/06 11:30:22;;;;;;;13.30;3.98;;;10.20;80.50;;;;;;1872729;76;21063;-49
2021/10/06 11:32:53;;;;;;;14.83;5.45;;;10.20;80.20;;;;;;1872826;77;21031;-50
2021/10/06 11:35:22;;;;;;;14.98;3.87;;;10.20;80.20;;;;;;1872640;76;21007;-51
2021/10/06 11:37:52;;;;;;;14.45;3.67;;;10.30;80.50;;;;;;1872891;77;21110;-49
2021/10/06 11:40:21;;;;;;;3.83;2.67;;;10.20;80.40;;;;;;1872817;75;21034;-49
2021/10/06 11:42:52;;;;;;;13.78;3.90;;;10.30;80.30;;;;;;1872669;76;21003;-50
2021/10/06 11:45:23;;;;;;;9.68;4.10;;;10.20;80.30;;;;;;1872777;75;21472;-50
2021/10/06 11:47:53;;;;;;;11.25;4.40;;;10.30;80.10;;;;;;1872695;76;21047;-49
2021/10/06 11:50:22;;;;;;;21.30;4.05;;;10.30;80.20;;;;;;1872784;77;21035;-48
2021/10/06 11:52:58;;;;;;;12.55;3.12;;;10.30;80.10;;;;;;1872758;77;21003;-48
2021/10/06 11:55:27;;;;;;;14.87;3.65;;;10.30;79.80;;;;;;1872720;76;21133;-48
2021/10/06 11:57:57;;;;;;;11.08;3.92;;;10.30;80.30;;;;;;1872780;77;21039;-50
2021/10/06 12:00:26;;;;;;;3.17;1.98;;;10.30;80.00;;;;;;1872842;77;21100;-50
2021/10/06 12:02:59;;;;;;;11.95;3.15;;;10.30;79.80;;;;;;1872803;76;21160;-50
2021/10/06 12:05:29;;;;;;;14.68;4.30;;;10.30;79.80;;;;;;1872664;77;21011;-50
2021/10/06 12:07:59;;;;;;;11.43;2.58;;;10.30;79.80;;;;;;1872715;77;21042;-49
2021/10/06 12:10:29;;;;;;;16.23;4.17;;;10.30;79.90;;;;;;1872848;76;21039;-49
2021/10/06 12:12:58;;;;;;;11.95;2.95;;;10.40;80.00;;;;;;1872697;77;21100;-49
2021/10/06 12:15:27;;;;;;;15.18;5.40;;;10.40;80.00;;;;;;1872710;77;21034;-51
2021/10/06 12:17:57;;;;;;;6.87;3.00;;;10.40;80.00;;;;;;1872691;76;21034;-51
2021/10/06 12:20:27;;;;;;;20.20;4.10;;;10.40;80.00;;;;;;1872675;76;21071;-49
2021/10/06 12:22:59;;;;;;;19.12;3.90;;;10.40;80.10;;;;;;1872829;77;21031;-51
2021/10/06 12:25:34;;;;;;;10.98;2.25;;;10.40;80.30;;;;;;1872790;77;21093;-51
2021/10/06 12:28:15;;;;;;;11.22;3.40;;;10.40;79.60;;;;;;1872844;75;20999;-50
2021/10/06 12:30:41;;;;;;;4.35;1.92;;;10.40;79.80;;;;;;1871843;76;21460;-49
2021/10/06 12:33:13;;;;;;;14.45;3.70;;;10.40;79.60;;;;;;1872844;75;21019;-50
2021/10/06 12:35:48;;;;;;;14.60;4.22;;;10.50;79.90;;;;;;1872819;77;21130;-50
2021/10/06 12:38:18;;;;;;;6.28;2.27;;;10.50;79.90;;;;;;1872936;77;21003;-50
2021/10/06 12:40:50;;;;;;;15.75;3.52;;;10.50;79.60;;;;;;1872738;76;21027;-50
2021/10/06 12:43:22;;;;;;;9.68;3.05;;;10.50;80.00;;;;;;1872779;77;21050;-50
2021/10/06 12:46:12;;;;;;;16.48;3.08;;;10.50;80.00;;;;;;1872471;76;21492;-50
2021/10/06 12:48:52;;;;;;;7.80;1.82;;;10.50;79.90;;;;;;1872676;77;21035;-48
2021/10/06 12:51:30;;;;;;;5.05;2.12;;;10.50;79.90;;;;;;1872751;77;21085;-48
2021/10/06 12:54:17;;;;;;;10.55;2.87;;;10.50;80.10;;;;;;1872748;76;21519;-50
2021/10/06 12:56:52;;;;;;;10.48;3.25;;;10.50;80.00;;;;;;1872741;75;21082;-50
2021/10/06 12:59:30;;;;;;;4.08;2.37;;;10.50;79.90;;;;;;1872888;76;21093;-50
2021/10/06 13:02:00;;;;;;;3.17;1.85;;;10.50;79.90;;;;;;1872966;75;21031;-49
2021/10/06 13:04:29;;;;;;;13.85;3.85;;;10.50;80.00;;;;;;1872946;76;21027;-48
2021/10/06 13:06:59;;;;;;;3.20;1.82;;;10.50;80.20;;;;;;1873097;76;21485;-50